RYR68GA EGCC-EINN
Flight info
| Callsign | RYR68GA |
|---|---|
| Flight time | 0h 54m |
| Altitude | 36000 |
| Route | EKLAD Y53 WAL L10 PENIL M144 BAGSO DCT PELIG DCT DIGAN DIGAN2E |
| Aircraft | B738/M-SDE2E3FGHIRWXY/LB1 |
Departure
| Time | 2026-05-08 19:59 |
|---|---|
| Airport | Manchester Airport (EGCC) |
Arrival
| Time | 2026-05-08 20:53 |
|---|---|
| Airport | Shannon Airport (EINN) |
| Time | Latitude | Longitude | Altitude | Speed | Heading |
|---|---|---|---|---|---|
| 2026-05-08 19:28 | 53.36031 | -2.27513 | 246 ft | 0 kts | 96° |
| 2026-05-08 19:46 | 53.36032 | -2.27521 | 246 ft | 4 kts | 96° |
| 2026-05-08 19:46 | 53.36035 | -2.27565 | 246 ft | 4 kts | 104° |
| 2026-05-08 19:46 | 53.36066 | -2.27614 | 246 ft | 2 kts | 186° |
| 2026-05-08 19:47 | 53.36067 | -2.27614 | 246 ft | 1 kts | 186° |
| 2026-05-08 19:50 | 53.36041 | -2.27620 | 246 ft | 8 kts | 186° |
| 2026-05-08 19:50 | 53.35983 | -2.27629 | 246 ft | 8 kts | 185° |
| 2026-05-08 19:50 | 53.35964 | -2.27632 | 246 ft | 0 kts | 185° |
| 2026-05-08 19:52 | 53.35963 | -2.27633 | 246 ft | 1 kts | 185° |
| 2026-05-08 19:52 | 53.35937 | -2.27637 | 246 ft | 5 kts | 185° |
| 2026-05-08 19:52 | 53.35900 | -2.27643 | 246 ft | 5 kts | 185° |
| 2026-05-08 19:52 | 53.35860 | -2.27649 | 246 ft | 6 kts | 185° |
| 2026-05-08 19:53 | 53.35807 | -2.27657 | 246 ft | 9 kts | 185° |
| 2026-05-08 19:53 | 53.35772 | -2.27661 | 246 ft | 2 kts | 175° |
| 2026-05-08 19:53 | 53.35710 | -2.27626 | 246 ft | 12 kts | 156° |
| 2026-05-08 19:53 | 53.35640 | -2.27545 | 247 ft | 12 kts | 140° |
| 2026-05-08 19:54 | 53.35634 | -2.27424 | 252 ft | 12 kts | 57° |
| 2026-05-08 19:54 | 53.35686 | -2.27319 | 252 ft | 12 kts | 50° |
| 2026-05-08 19:54 | 53.35742 | -2.27200 | 252 ft | 14 kts | 51° |
| 2026-05-08 19:54 | 53.35808 | -2.27057 | 252 ft | 16 kts | 59° |
| 2026-05-08 19:55 | 53.35869 | -2.26905 | 253 ft | 15 kts | 51° |
| 2026-05-08 19:55 | 53.35928 | -2.26760 | 253 ft | 15 kts | 53° |
| 2026-05-08 19:55 | 53.35992 | -2.26629 | 253 ft | 14 kts | 50° |
| 2026-05-08 19:55 | 53.36053 | -2.26503 | 253 ft | 14 kts | 52° |
| 2026-05-08 19:56 | 53.36116 | -2.26366 | 251 ft | 16 kts | 52° |
| 2026-05-08 19:56 | 53.36202 | -2.26229 | 249 ft | 18 kts | 42° |
| 2026-05-08 19:56 | 53.36271 | -2.26051 | 250 ft | 16 kts | 83° |
| 2026-05-08 19:56 | 53.36271 | -2.26041 | 250 ft | 0 kts | 91° |
| 2026-05-08 19:57 | 53.36278 | -2.25952 | 252 ft | 18 kts | 75° |
| 2026-05-08 19:57 | 53.36233 | -2.25775 | 259 ft | 20 kts | 180° |
| 2026-05-08 19:58 | 53.36114 | -2.25964 | 258 ft | 47 kts | 230° |
| 2026-05-08 19:58 | 53.35730 | -2.26757 | 267 ft | 125 kts | 231° |
| 2026-05-08 19:58 | 53.35294 | -2.27668 | 278 ft | 169 kts | 231° |
| 2026-05-08 19:58 | 53.34506 | -2.29359 | 789 ft | 197 kts | 231° |
| 2026-05-08 19:59 | 53.33619 | -2.31226 | 1642 ft | 206 kts | 229° |
| 2026-05-08 19:59 | 53.32711 | -2.33102 | 2467 ft | 216 kts | 229° |
| 2026-05-08 19:59 | 53.32083 | -2.35523 | 2792 ft | 240 kts | 262° |
| 2026-05-08 19:59 | 53.32051 | -2.38335 | 3501 ft | 243 kts | 269° |
| 2026-05-08 20:00 | 53.32096 | -2.41145 | 4194 ft | 248 kts | 269° |
| 2026-05-08 20:00 | 53.32157 | -2.44042 | 4831 ft | 253 kts | 269° |
| 2026-05-08 20:00 | 53.32008 | -2.47066 | 4978 ft | 265 kts | 252° |
| 2026-05-08 20:00 | 53.31446 | -2.50007 | 5037 ft | 268 kts | 249° |
| 2026-05-08 20:01 | 53.30864 | -2.52971 | 5015 ft | 268 kts | 249° |
| 2026-05-08 20:01 | 53.30302 | -2.55931 | 5028 ft | 266 kts | 249° |
| 2026-05-08 20:01 | 53.29752 | -2.58879 | 5031 ft | 265 kts | 250° |
| 2026-05-08 20:01 | 53.29205 | -2.61833 | 5090 ft | 269 kts | 250° |
| 2026-05-08 20:02 | 53.28648 | -2.64839 | 5840 ft | 271 kts | 250° |
| 2026-05-08 20:02 | 53.28094 | -2.67839 | 6872 ft | 269 kts | 251° |
| 2026-05-08 20:02 | 53.27542 | -2.70838 | 7803 ft | 271 kts | 251° |
| 2026-05-08 20:02 | 53.26987 | -2.73864 | 8696 ft | 274 kts | 251° |
| 2026-05-08 20:03 | 53.26423 | -2.76933 | 9600 ft | 277 kts | 251° |
| 2026-05-08 20:03 | 53.25891 | -2.80046 | 10430 ft | 282 kts | 258° |
| 2026-05-08 20:03 | 53.26008 | -2.83441 | 10695 ft | 311 kts | 287° |
| 2026-05-08 20:03 | 53.27135 | -2.86696 | 10961 ft | 336 kts | 304° |
| 2026-05-08 20:04 | 53.28574 | -2.89863 | 11547 ft | 346 kts | 306° |
| 2026-05-08 20:04 | 53.30058 | -2.93067 | 12337 ft | 350 kts | 305° |
| 2026-05-08 20:04 | 53.31545 | -2.96300 | 13186 ft | 352 kts | 304° |
| 2026-05-08 20:04 | 53.33034 | -2.99578 | 13979 ft | 356 kts | 304° |
| 2026-05-08 20:05 | 53.34527 | -3.02899 | 14670 ft | 360 kts | 303° |
| 2026-05-08 20:05 | 53.36034 | -3.06272 | 15367 ft | 363 kts | 303° |
| 2026-05-08 20:05 | 53.37552 | -3.09685 | 16045 ft | 368 kts | 303° |
| 2026-05-08 20:05 | 53.39093 | -3.13155 | 16654 ft | 374 kts | 303° |
| 2026-05-08 20:06 | 53.40632 | -3.16690 | 17347 ft | 377 kts | 302° |
| 2026-05-08 20:06 | 53.42163 | -3.20282 | 18061 ft | 380 kts | 302° |
| 2026-05-08 20:06 | 53.43703 | -3.23922 | 18687 ft | 384 kts | 302° |
| 2026-05-08 20:06 | 53.45249 | -3.27581 | 19287 ft | 386 kts | 302° |
| 2026-05-08 20:07 | 53.46811 | -3.31273 | 19906 ft | 389 kts | 302° |
| 2026-05-08 20:07 | 53.48379 | -3.34980 | 20500 ft | 391 kts | 302° |
| 2026-05-08 20:07 | 53.49939 | -3.38669 | 21063 ft | 394 kts | 302° |
| 2026-05-08 20:07 | 53.51551 | -3.42486 | 21648 ft | 397 kts | 302° |
| 2026-05-08 20:08 | 53.53133 | -3.46236 | 22200 ft | 400 kts | 301° |
| 2026-05-08 20:08 | 53.54747 | -3.50067 | 22749 ft | 403 kts | 301° |
| 2026-05-08 20:08 | 53.56370 | -3.53922 | 23295 ft | 405 kts | 301° |
| 2026-05-08 20:08 | 53.58004 | -3.57812 | 23804 ft | 408 kts | 301° |
| 2026-05-08 20:09 | 53.59624 | -3.61744 | 24241 ft | 409 kts | 298° |
| 2026-05-08 20:09 | 53.60889 | -3.65999 | 24715 ft | 405 kts | 287° |
| 2026-05-08 20:09 | 53.61703 | -3.70509 | 25199 ft | 402 kts | 278° |
| 2026-05-08 20:09 | 53.62069 | -3.75137 | 25634 ft | 400 kts | 271° |
| 2026-05-08 20:10 | 53.62236 | -3.79830 | 26065 ft | 402 kts | 270° |
| 2026-05-08 20:10 | 53.62396 | -3.84534 | 26463 ft | 404 kts | 270° |
| 2026-05-08 20:10 | 53.62578 | -3.89271 | 26875 ft | 406 kts | 270° |
| 2026-05-08 20:10 | 53.62775 | -3.94033 | 27287 ft | 408 kts | 271° |
| 2026-05-08 20:11 | 53.62973 | -3.98804 | 27687 ft | 409 kts | 270° |
| 2026-05-08 20:11 | 53.63164 | -4.03594 | 28072 ft | 411 kts | 270° |
| 2026-05-08 20:11 | 53.63351 | -4.08415 | 28450 ft | 413 kts | 270° |
| 2026-05-08 20:11 | 53.63536 | -4.13247 | 28817 ft | 415 kts | 270° |
| 2026-05-08 20:12 | 53.63719 | -4.18101 | 29218 ft | 416 kts | 270° |
| 2026-05-08 20:12 | 53.63901 | -4.22974 | 29615 ft | 417 kts | 270° |
| 2026-05-08 20:12 | 53.64082 | -4.27858 | 29955 ft | 418 kts | 270° |
| 2026-05-08 20:12 | 53.64261 | -4.32767 | 30266 ft | 420 kts | 270° |
| 2026-05-08 20:13 | 53.64437 | -4.37668 | 30614 ft | 419 kts | 270° |
| 2026-05-08 20:13 | 53.64610 | -4.42570 | 31081 ft | 416 kts | 270° |
| 2026-05-08 20:13 | 53.64777 | -4.47343 | 31533 ft | 412 kts | 270° |
| 2026-05-08 20:13 | 53.64945 | -4.52219 | 31930 ft | 411 kts | 270° |
| 2026-05-08 20:14 | 53.65107 | -4.56960 | 32285 ft | 410 kts | 270° |
| 2026-05-08 20:14 | 53.65272 | -4.61815 | 32690 ft | 408 kts | 270° |
| 2026-05-08 20:14 | 53.65429 | -4.66510 | 33132 ft | 405 kts | 270° |
| 2026-05-08 20:14 | 53.65586 | -4.71228 | 33591 ft | 402 kts | 270° |
| 2026-05-08 20:15 | 53.65741 | -4.75925 | 33935 ft | 401 kts | 269° |
| 2026-05-08 20:15 | 53.65893 | -4.80621 | 34234 ft | 401 kts | 269° |
| 2026-05-08 20:15 | 53.66043 | -4.85316 | 34469 ft | 402 kts | 270° |
| 2026-05-08 20:15 | 53.66198 | -4.90029 | 34672 ft | 403 kts | 270° |
| 2026-05-08 20:16 | 53.66356 | -4.94765 | 34897 ft | 404 kts | 270° |
| 2026-05-08 20:16 | 53.66512 | -4.99489 | 35137 ft | 404 kts | 270° |
| 2026-05-08 20:16 | 53.66667 | -5.04224 | 35325 ft | 405 kts | 270° |
| 2026-05-08 20:16 | 53.66820 | -5.08983 | 35485 ft | 407 kts | 270° |
| 2026-05-08 20:17 | 53.66971 | -5.13759 | 35687 ft | 408 kts | 270° |
| 2026-05-08 20:17 | 53.67117 | -5.18540 | 35919 ft | 408 kts | 270° |
| 2026-05-08 20:17 | 53.67256 | -5.23320 | 36141 ft | 409 kts | 269° |
| 2026-05-08 20:17 | 53.67393 | -5.28128 | 36137 ft | 412 kts | 269° |
| 2026-05-08 20:18 | 53.67667 | -5.37818 | 36149 ft | 413 kts | 269° |
| 2026-05-08 20:18 | 53.67719 | -5.47398 | 36148 ft | 403 kts | 260° |
| 2026-05-08 20:19 | 53.66413 | -5.56528 | 36140 ft | 400 kts | 246° |
| 2026-05-08 20:19 | 53.64222 | -5.65142 | 36155 ft | 400 kts | 246° |
| 2026-05-08 20:20 | 53.62006 | -5.73743 | 36157 ft | 400 kts | 246° |
| 2026-05-08 20:20 | 53.59796 | -5.82361 | 36136 ft | 401 kts | 246° |
| 2026-05-08 20:21 | 53.57586 | -5.90997 | 36145 ft | 402 kts | 246° |
| 2026-05-08 20:21 | 53.55382 | -5.99589 | 36153 ft | 403 kts | 246° |
| 2026-05-08 20:22 | 53.53149 | -6.08267 | 36151 ft | 405 kts | 246° |
| 2026-05-08 20:22 | 53.51268 | -6.15548 | 36152 ft | 406 kts | 246° |
| 2026-05-08 20:23 | 53.48645 | -6.25664 | 36152 ft | 407 kts | 245° |
| 2026-05-08 20:23 | 53.46375 | -6.34380 | 36148 ft | 408 kts | 245° |
| 2026-05-08 20:24 | 53.44096 | -6.43096 | 36147 ft | 408 kts | 245° |
| 2026-05-08 20:24 | 53.41812 | -6.51801 | 36156 ft | 407 kts | 245° |
| 2026-05-08 20:25 | 53.39525 | -6.60484 | 36147 ft | 407 kts | 245° |
| 2026-05-08 20:25 | 53.38370 | -6.64854 | 35699 ft | 413 kts | 245° |
| 2026-05-08 20:25 | 53.37210 | -6.69233 | 35141 ft | 411 kts | 245° |
| 2026-05-08 20:26 | 53.36054 | -6.73594 | 34578 ft | 409 kts | 244° |
| 2026-05-08 20:26 | 53.34907 | -6.77916 | 34155 ft | 404 kts | 244° |
| 2026-05-08 20:26 | 53.33771 | -6.82183 | 33634 ft | 399 kts | 244° |
| 2026-05-08 20:26 | 53.32648 | -6.86397 | 33193 ft | 394 kts | 244° |
| 2026-05-08 20:27 | 53.31539 | -6.90547 | 32757 ft | 389 kts | 244° |
| 2026-05-08 20:27 | 53.30441 | -6.94647 | 32316 ft | 384 kts | 244° |
| 2026-05-08 20:27 | 53.29354 | -6.98702 | 31893 ft | 380 kts | 244° |
| 2026-05-08 20:27 | 53.28291 | -7.02659 | 31461 ft | 376 kts | 244° |
| 2026-05-08 20:28 | 53.27222 | -7.06629 | 31056 ft | 373 kts | 244° |
| 2026-05-08 20:28 | 53.26164 | -7.10556 | 30645 ft | 369 kts | 244° |
| 2026-05-08 20:28 | 53.25112 | -7.14452 | 30241 ft | 366 kts | 244° |
| 2026-05-08 20:28 | 53.24069 | -7.18310 | 29810 ft | 363 kts | 243° |
| 2026-05-08 20:29 | 53.23034 | -7.22131 | 29344 ft | 359 kts | 244° |
| 2026-05-08 20:29 | 53.22011 | -7.25907 | 28928 ft | 355 kts | 243° |
| 2026-05-08 20:29 | 53.20998 | -7.29634 | 28517 ft | 351 kts | 243° |
| 2026-05-08 20:29 | 53.19992 | -7.33325 | 28105 ft | 347 kts | 243° |
| 2026-05-08 20:30 | 53.18957 | -7.36951 | 27586 ft | 347 kts | 242° |
| 2026-05-08 20:30 | 53.17884 | -7.40531 | 27178 ft | 344 kts | 242° |
| 2026-05-08 20:30 | 53.16808 | -7.44074 | 26763 ft | 341 kts | 242° |
| 2026-05-08 20:30 | 53.15738 | -7.47592 | 26367 ft | 338 kts | 242° |
| 2026-05-08 20:31 | 53.14679 | -7.51082 | 25974 ft | 336 kts | 242° |
| 2026-05-08 20:31 | 53.13631 | -7.54543 | 25586 ft | 334 kts | 242° |
| 2026-05-08 20:31 | 53.12590 | -7.57984 | 25196 ft | 332 kts | 242° |
| 2026-05-08 20:31 | 53.11556 | -7.61401 | 24826 ft | 330 kts | 242° |
| 2026-05-08 20:32 | 53.10525 | -7.64807 | 24448 ft | 329 kts | 242° |
| 2026-05-08 20:32 | 53.09494 | -7.68211 | 24077 ft | 329 kts | 242° |
| 2026-05-08 20:32 | 53.08461 | -7.71616 | 23686 ft | 331 kts | 242° |
| 2026-05-08 20:32 | 53.07410 | -7.75075 | 23241 ft | 339 kts | 242° |
| 2026-05-08 20:33 | 53.06337 | -7.78602 | 22800 ft | 342 kts | 242° |
| 2026-05-08 20:33 | 53.05267 | -7.82117 | 22379 ft | 340 kts | 242° |
| 2026-05-08 20:33 | 53.04202 | -7.85612 | 21988 ft | 336 kts | 242° |
| 2026-05-08 20:33 | 53.03150 | -7.89058 | 21585 ft | 333 kts | 242° |
| 2026-05-08 20:34 | 53.02106 | -7.92473 | 21207 ft | 330 kts | 242° |
| 2026-05-08 20:34 | 53.01069 | -7.95862 | 20816 ft | 328 kts | 242° |
| 2026-05-08 20:34 | 52.99013 | -8.02562 | 20064 ft | 323 kts | 242° |
| 2026-05-08 20:35 | 52.97994 | -8.05877 | 19684 ft | 321 kts | 242° |
| 2026-05-08 20:35 | 52.96982 | -8.09168 | 19305 ft | 319 kts | 242° |
| 2026-05-08 20:35 | 52.95974 | -8.12440 | 18940 ft | 318 kts | 242° |
| 2026-05-08 20:35 | 52.94981 | -8.15653 | 18578 ft | 317 kts | 241° |
| 2026-05-08 20:36 | 52.93984 | -8.18905 | 18175 ft | 316 kts | 244° |
| 2026-05-08 20:36 | 52.93335 | -8.22406 | 17517 ft | 324 kts | 258° |
| 2026-05-08 20:36 | 52.92990 | -8.26095 | 17064 ft | 324 kts | 259° |
| 2026-05-08 20:36 | 52.92663 | -8.29798 | 16657 ft | 323 kts | 259° |
| 2026-05-08 20:37 | 52.92335 | -8.33466 | 16281 ft | 320 kts | 259° |
| 2026-05-08 20:37 | 52.92001 | -8.37098 | 15913 ft | 318 kts | 259° |
| 2026-05-08 20:37 | 52.91660 | -8.40719 | 15539 ft | 316 kts | 259° |
| 2026-05-08 20:37 | 52.91317 | -8.44305 | 15194 ft | 314 kts | 259° |
| 2026-05-08 20:38 | 52.90971 | -8.47869 | 14836 ft | 313 kts | 259° |
| 2026-05-08 20:38 | 52.90624 | -8.51415 | 14480 ft | 311 kts | 259° |
| 2026-05-08 20:38 | 52.90276 | -8.54948 | 14129 ft | 310 kts | 259° |
| 2026-05-08 20:38 | 52.89929 | -8.58467 | 13756 ft | 309 kts | 259° |
| 2026-05-08 20:39 | 52.89581 | -8.61972 | 13375 ft | 308 kts | 259° |
| 2026-05-08 20:39 | 52.89234 | -8.65452 | 13012 ft | 306 kts | 259° |
| 2026-05-08 20:39 | 52.88888 | -8.68911 | 12644 ft | 304 kts | 259° |
| 2026-05-08 20:39 | 52.88543 | -8.72356 | 12292 ft | 302 kts | 259° |
| 2026-05-08 20:40 | 52.88200 | -8.75778 | 11940 ft | 301 kts | 259° |
| 2026-05-08 20:40 | 52.87858 | -8.79186 | 11603 ft | 299 kts | 259° |
| 2026-05-08 20:40 | 52.87514 | -8.82586 | 11256 ft | 298 kts | 259° |
| 2026-05-08 20:40 | 52.87170 | -8.85964 | 10911 ft | 297 kts | 259° |
| 2026-05-08 20:41 | 52.86509 | -8.89166 | 10550 ft | 295 kts | 235° |
| 2026-05-08 20:41 | 52.85298 | -8.91818 | 10439 ft | 285 kts | 231° |
| 2026-05-08 20:41 | 52.84085 | -8.94375 | 10291 ft | 278 kts | 231° |
| 2026-05-08 20:41 | 52.82906 | -8.96855 | 10161 ft | 270 kts | 231° |
| 2026-05-08 20:42 | 52.82143 | -8.98464 | 10004 ft | 269 kts | 231° |
| 2026-05-08 20:42 | 52.80992 | -9.00894 | 9718 ft | 267 kts | 231° |
| 2026-05-08 20:42 | 52.79850 | -9.03307 | 9428 ft | 266 kts | 231° |
| 2026-05-08 20:42 | 52.78715 | -9.05709 | 9160 ft | 264 kts | 231° |
| 2026-05-08 20:43 | 52.77588 | -9.08093 | 8891 ft | 263 kts | 231° |
| 2026-05-08 20:43 | 52.76462 | -9.10473 | 8620 ft | 262 kts | 232° |
| 2026-05-08 20:43 | 52.75345 | -9.12836 | 8350 ft | 261 kts | 232° |
| 2026-05-08 20:43 | 52.74234 | -9.15187 | 8082 ft | 260 kts | 232° |
| 2026-05-08 20:44 | 52.73121 | -9.17538 | 7829 ft | 258 kts | 232° |
| 2026-05-08 20:44 | 52.72018 | -9.19868 | 7561 ft | 257 kts | 232° |
| 2026-05-08 20:44 | 52.70917 | -9.22193 | 7301 ft | 257 kts | 232° |
| 2026-05-08 20:44 | 52.69821 | -9.24503 | 7041 ft | 256 kts | 232° |
| 2026-05-08 20:45 | 52.68725 | -9.26807 | 6785 ft | 255 kts | 231° |
| 2026-05-08 20:45 | 52.67631 | -9.29106 | 6530 ft | 254 kts | 232° |
| 2026-05-08 20:45 | 52.66422 | -9.31188 | 6247 ft | 252 kts | 210° |
| 2026-05-08 20:45 | 52.64789 | -9.31989 | 6053 ft | 247 kts | 178° |
| 2026-05-08 20:46 | 52.63108 | -9.31369 | 5756 ft | 250 kts | 151° |
| 2026-05-08 20:46 | 52.61668 | -9.29810 | 5439 ft | 248 kts | 139° |
| 2026-05-08 20:46 | 52.60313 | -9.28035 | 5037 ft | 252 kts | 138° |
| 2026-05-08 20:46 | 52.58942 | -9.26226 | 4646 ft | 251 kts | 139° |
| 2026-05-08 20:47 | 52.57584 | -9.24437 | 4291 ft | 247 kts | 134° |
| 2026-05-08 20:47 | 52.56710 | -9.22163 | 3964 ft | 230 kts | 96° |
| 2026-05-08 20:47 | 52.56970 | -9.19709 | 3695 ft | 218 kts | 57° |
| 2026-05-08 20:47 | 52.57935 | -9.17860 | 3499 ft | 208 kts | 49° |
| 2026-05-08 20:48 | 52.58863 | -9.16113 | 3219 ft | 198 kts | 51° |
| 2026-05-08 20:48 | 52.59727 | -9.14444 | 3038 ft | 183 kts | 50° |
| 2026-05-08 20:48 | 52.60517 | -9.12895 | 2937 ft | 172 kts | 50° |
| 2026-05-08 20:48 | 52.61291 | -9.11413 | 2721 ft | 168 kts | 51° |
| 2026-05-08 20:49 | 52.62013 | -9.09933 | 2489 ft | 161 kts | 52° |
| 2026-05-08 20:49 | 52.62699 | -9.08482 | 2289 ft | 161 kts | 53° |
| 2026-05-08 20:49 | 52.63386 | -9.07018 | 2054 ft | 163 kts | 53° |
| 2026-05-08 20:49 | 52.64075 | -9.05546 | 1816 ft | 158 kts | 52° |
| 2026-05-08 20:50 | 52.64709 | -9.04192 | 1596 ft | 140 kts | 52° |
| 2026-05-08 20:50 | 52.65260 | -9.03016 | 1454 ft | 118 kts | 51° |
| 2026-05-08 20:50 | 52.65744 | -9.01983 | 1287 ft | 112 kts | 51° |
| 2026-05-08 20:50 | 52.66234 | -9.00943 | 1110 ft | 117 kts | 51° |
| 2026-05-08 20:51 | 52.66747 | -8.99850 | 954 ft | 124 kts | 51° |
| 2026-05-08 20:51 | 52.67262 | -8.98680 | 842 ft | 126 kts | 50° |
| 2026-05-08 20:51 | 52.67820 | -8.97556 | 663 ft | 128 kts | 49° |
| 2026-05-08 20:51 | 52.68350 | -8.96393 | 432 ft | 125 kts | 50° |
| 2026-05-08 20:52 | 52.68870 | -8.95286 | 238 ft | 121 kts | 48° |
| 2026-05-08 20:52 | 52.69385 | -8.94202 | 66 ft | 120 kts | 51° |
| 2026-05-08 20:52 | 52.69854 | -8.93227 | 39 ft | 92 kts | 51° |
| 2026-05-08 20:52 | 52.70197 | -8.92506 | 32 ft | 68 kts | 52° |
| 2026-05-08 20:53 | 52.70374 | -8.92126 | 31 ft | 36 kts | 52° |
| 2026-05-08 20:53 | 52.70522 | -8.91813 | 27 ft | 34 kts | 52° |
| 2026-05-08 20:53 | 52.70655 | -8.91521 | 23 ft | 31 kts | 52° |
| 2026-05-08 20:53 | 52.70739 | -8.91277 | 24 ft | 19 kts | 91° |
| 2026-05-08 20:54 | 52.70654 | -8.91135 | 22 ft | 19 kts | 169° |
| 2026-05-08 20:54 | 52.70528 | -8.91097 | 22 ft | 18 kts | 169° |
| 2026-05-08 20:54 | 52.70405 | -8.91061 | 22 ft | 18 kts | 170° |
| 2026-05-08 20:54 | 52.70287 | -8.91027 | 24 ft | 17 kts | 170° |
| 2026-05-08 20:55 | 52.70173 | -8.91020 | 21 ft | 16 kts | 197° |
| 2026-05-08 20:55 | 52.70068 | -8.91079 | 22 ft | 16 kts | 199° |
| 2026-05-08 20:55 | 52.69964 | -8.91136 | 23 ft | 16 kts | 199° |
| 2026-05-08 20:55 | 52.69853 | -8.91198 | 21 ft | 17 kts | 198° |
| 2026-05-08 20:56 | 52.69740 | -8.91260 | 23 ft | 19 kts | 198° |
| 2026-05-08 20:56 | 52.69596 | -8.91339 | 22 ft | 23 kts | 198° |
| 2026-05-08 20:56 | 52.69446 | -8.91422 | 21 ft | 22 kts | 198° |
| 2026-05-08 20:56 | 52.69313 | -8.91496 | 21 ft | 16 kts | 199° |
| 2026-05-08 20:57 | 52.69273 | -8.91618 | 23 ft | 15 kts | 304° |
| 2026-05-08 20:57 | 52.69347 | -8.91734 | 21 ft | 15 kts | 337° |
| 2026-05-08 20:57 | 52.69430 | -8.91814 | 21 ft | 14 kts | 299° |
| 2026-05-08 20:57 | 52.69438 | -8.91945 | 24 ft | 9 kts | 218° |
| 2026-05-08 20:58 | 52.69373 | -8.91952 | 21 ft | 9 kts | 185° |
| 2026-05-08 20:58 | 52.69366 | -8.91954 | 24 ft | 0 kts | 185° |